sensor_id;sensor_type;location;lat;lon;timestamp;temperature;humidity
33093;DHT22;19456;46.104;12.908;2023-06-26T00:02:25;22.20;99.90
33093;DHT22;19456;46.104;12.908;2023-06-26T00:04:50;22.30;99.90
33093;DHT22;19456;46.104;12.908;2023-06-26T00:07:21;22.40;99.90
33093;DHT22;19456;46.104;12.908;2023-06-26T00:09:47;22.20;99.90
33093;DHT22;19456;46.104;12.908;2023-06-26T00:12:12;22.20;99.90
33093;DHT22;19456;46.104;12.908;2023-06-26T00:14:38;22.20;99.90
33093;DHT22;19456;46.104;12.908;2023-06-26T00:17:03;22.20;99.90
33093;DHT22;19456;46.104;12.908;2023-06-26T00:19:29;22.00;99.90
33093;DHT22;19456;46.104;12.908;2023-06-26T00:21:55;21.80;99.90
33093;DHT22;19456;46.104;12.908;2023-06-26T00:24:20;21.80;99.90
33093;DHT22;19456;46.104;12.908;2023-06-26T00:26:47;21.70;99.90
33093;DHT22;19456;46.104;12.908;2023-06-26T00:29:13;21.80;99.90
33093;DHT22;19456;46.104;12.908;2023-06-26T00:31:38;21.70;99.90
33093;DHT22;19456;46.104;12.908;2023-06-26T00:34:05;21.60;99.90
33093;DHT22;19456;46.104;12.908;2023-06-26T00:36:31;21.70;99.90
33093;DHT22;19456;46.104;12.908;2023-06-26T00:38:56;21.70;99.90
33093;DHT22;19456;46.104;12.908;2023-06-26T00:41:22;21.80;99.90
33093;DHT22;19456;46.104;12.908;2023-06-26T00:43:48;21.90;99.90
33093;DHT22;19456;46.104;12.908;2023-06-26T00:46:14;21.90;99.90
33093;DHT22;19456;46.104;12.908;2023-06-26T00:48:41;22.00;99.90
33093;DHT22;19456;46.104;12.908;2023-06-26T00:51:07;22.00;99.90
33093;DHT22;19456;46.104;12.908;2023-06-26T00:53:32;21.90;99.90
33093;DHT22;19456;46.104;12.908;2023-06-26T00:55:58;22.00;99.90
33093;DHT22;19456;46.104;12.908;2023-06-26T00:58:24;22.00;99.90
33093;DHT22;19456;46.104;12.908;2023-06-26T01:00:50;22.00;99.90
33093;DHT22;19456;46.104;12.908;2023-06-26T01:03:16;22.10;99.90
33093;DHT22;19456;46.104;12.908;2023-06-26T01:05:42;22.30;99.90
33093;DHT22;19456;46.104;12.908;2023-06-26T01:08:13;22.20;99.90
33093;DHT22;19456;46.104;12.908;2023-06-26T01:10:39;22.20;99.90
33093;DHT22;19456;46.104;12.908;2023-06-26T01:13:05;22.20;99.90
33093;DHT22;19456;46.104;12.908;2023-06-26T01:15:30;22.00;99.90
33093;DHT22;19456;46.104;12.908;2023-06-26T01:17:56;21.70;99.90
33093;DHT22;19456;46.104;12.908;2023-06-26T01:20:27;21.50;99.90
33093;DHT22;19456;46.104;12.908;2023-06-26T01:23:37;21.50;99.90
33093;DHT22;19456;46.104;12.908;2023-06-26T01:28:16;21.30;99.90
33093;DHT22;19456;46.104;12.908;2023-06-26T01:30:43;21.30;99.90
33093;DHT22;19456;46.104;12.908;2023-06-26T01:33:09;21.30;99.90
33093;DHT22;19456;46.104;12.908;2023-06-26T01:35:35;21.30;99.90
33093;DHT22;19456;46.104;12.908;2023-06-26T01:38:11;21.20;99.90
33093;DHT22;19456;46.104;12.908;2023-06-26T01:40:36;21.20;99.90
33093;DHT22;19456;46.104;12.908;2023-06-26T01:43:02;21.10;99.90
33093;DHT22;19456;46.104;12.908;2023-06-26T01:45:28;21.10;99.90
33093;DHT22;19456;46.104;12.908;2023-06-26T01:47:54;21.10;99.90
33093;DHT22;19456;46.104;12.908;2023-06-26T01:50:22;20.90;99.90
33093;DHT22;19456;46.104;12.908;2023-06-26T01:52:53;21.00;99.90
33093;DHT22;19456;46.104;12.908;2023-06-26T01:55:37;21.00;99.90
33093;DHT22;19456;46.104;12.908;2023-06-26T01:58:05;21.00;99.90
33093;DHT22;19456;46.104;12.908;2023-06-26T02:00:31;21.00;99.90
33093;DHT22;19456;46.104;12.908;2023-06-26T02:02:57;20.80;99.90
33093;DHT22;19456;46.104;12.908;2023-06-26T02:05:23;20.90;99.90
33093;DHT22;19456;46.104;12.908;2023-06-26T02:07:49;20.80;99.90
33093;DHT22;19456;46.104;12.908;2023-06-26T02:10:14;20.90;99.90
33093;DHT22;19456;46.104;12.908;2023-06-26T02:12:40;20.80;99.90
33093;DHT22;19456;46.104;12.908;2023-06-26T02:15:06;20.60;99.90
33093;DHT22;19456;46.104;12.908;2023-06-26T02:17:32;20.40;99.90
33093;DHT22;19456;46.104;12.908;2023-06-26T02:19:57;20.30;99.90
33093;DHT22;19456;46.104;12.908;2023-06-26T02:22:23;20.10;99.90
33093;DHT22;19456;46.104;12.908;2023-06-26T02:24:48;20.10;99.90
33093;DHT22;19456;46.104;12.908;2023-06-26T02:27:14;20.10;99.90
33093;DHT22;19456;46.104;12.908;2023-06-26T02:29:40;20.00;99.90
33093;DHT22;19456;46.104;12.908;2023-06-26T02:32:06;20.10;99.90
33093;DHT22;19456;46.104;12.908;2023-06-26T02:34:31;20.20;99.90
33093;DHT22;19456;46.104;12.908;2023-06-26T02:36:57;20.30;99.90
33093;DHT22;19456;46.104;12.908;2023-06-26T02:39:23;20.20;99.90
33093;DHT22;19456;46.104;12.908;2023-06-26T02:41:49;20.30;99.90
33093;DHT22;19456;46.104;12.908;2023-06-26T02:44:14;20.40;99.90
33093;DHT22;19456;46.104;12.908;2023-06-26T02:46:40;20.40;99.90
33093;DHT22;19456;46.104;12.908;2023-06-26T02:49:06;20.00;99.90
33093;DHT22;19456;46.104;12.908;2023-06-26T02:51:32;19.90;99.90
33093;DHT22;19456;46.104;12.908;2023-06-26T02:53:58;19.80;99.90
33093;DHT22;19456;46.104;12.908;2023-06-26T02:56:23;19.70;99.90
33093;DHT22;19456;46.104;12.908;2023-06-26T02:58:49;19.60;99.90
33093;DHT22;19456;46.104;12.908;2023-06-26T03:01:14;19.50;99.90
33093;DHT22;19456;46.104;12.908;2023-06-26T03:03:40;19.40;99.90
33093;DHT22;19456;46.104;12.908;2023-06-26T03:06:06;19.40;99.90
33093;DHT22;19456;46.104;12.908;2023-06-26T03:08:33;19.50;99.90
33093;DHT22;19456;46.104;12.908;2023-06-26T03:10:58;19.60;99.90
33093;DHT22;19456;46.104;12.908;2023-06-26T03:13:24;19.70;99.90
33093;DHT22;19456;46.104;12.908;2023-06-26T03:15:49;19.80;99.90
33093;DHT22;19456;46.104;12.908;2023-06-26T03:18:15;19.70;99.90
33093;DHT22;19456;46.104;12.908;2023-06-26T03:20:41;19.90;99.90
33093;DHT22;19456;46.104;12.908;2023-06-26T03:23:06;19.90;99.90
33093;DHT22;19456;46.104;12.908;2023-06-26T03:25:32;20.00;99.90
33093;DHT22;19456;46.104;12.908;2023-06-26T03:27:57;20.00;99.90
33093;DHT22;19456;46.104;12.908;2023-06-26T03:30:23;20.10;99.90
33093;DHT22;19456;46.104;12.908;2023-06-26T03:32:48;20.00;99.90
33093;DHT22;19456;46.104;12.908;2023-06-26T03:35:14;20.00;99.90
33093;DHT22;19456;46.104;12.908;2023-06-26T03:37:40;20.00;99.90
33093;DHT22;19456;46.104;12.908;2023-06-26T03:40:05;19.70;99.90
33093;DHT22;19456;46.104;12.908;2023-06-26T03:42:31;19.50;99.90
33093;DHT22;19456;46.104;12.908;2023-06-26T03:44:57;19.40;99.90
33093;DHT22;19456;46.104;12.908;2023-06-26T03:47:22;19.40;99.90
33093;DHT22;19456;46.104;12.908;2023-06-26T03:49:48;19.50;99.90
33093;DHT22;19456;46.104;12.908;2023-06-26T03:52:13;19.50;99.90
33093;DHT22;19456;46.104;12.908;2023-06-26T03:54:39;19.50;99.90
33093;DHT22;19456;46.104;12.908;2023-06-26T03:57:04;19.50;99.90
33093;DHT22;19456;46.104;12.908;2023-06-26T03:59:30;19.40;99.90
33093;DHT22;19456;46.104;12.908;2023-06-26T04:01:56;19.40;99.90
33093;DHT22;19456;46.104;12.908;2023-06-26T04:04:24;19.50;99.90
33093;DHT22;19456;46.104;12.908;2023-06-26T04:06:50;19.60;99.90
33093;DHT22;19456;46.104;12.908;2023-06-26T04:09:16;19.60;99.90
33093;DHT22;19456;46.104;12.908;2023-06-26T04:11:41;19.70;99.90
33093;DHT22;19456;46.104;12.908;2023-06-26T04:14:07;19.70;99.90
33093;DHT22;19456;46.104;12.908;2023-06-26T04:16:32;19.60;99.90
33093;DHT22;19456;46.104;12.908;2023-06-26T04:18:58;19.60;99.90
33093;DHT22;19456;46.104;12.908;2023-06-26T04:21:23;19.60;99.90
33093;DHT22;19456;46.104;12.908;2023-06-26T04:23:52;19.80;99.90
33093;DHT22;19456;46.104;12.908;2023-06-26T04:26:18;20.10;99.90
33093;DHT22;19456;46.104;12.908;2023-06-26T04:28:43;20.40;99.90
33093;DHT22;19456;46.104;12.908;2023-06-26T04:31:09;20.60;99.90
33093;DHT22;19456;46.104;12.908;2023-06-26T04:33:35;20.80;99.90
33093;DHT22;19456;46.104;12.908;2023-06-26T04:36:02;20.80;99.90
33093;DHT22;19456;46.104;12.908;2023-06-26T04:38:29;20.90;99.90
33093;DHT22;19456;46.104;12.908;2023-06-26T04:40:54;21.00;99.90
33093;DHT22;19456;46.104;12.908;2023-06-26T04:43:20;21.10;99.90
33093;DHT22;19456;46.104;12.908;2023-06-26T04:45:45;20.90;99.90
33093;DHT22;19456;46.104;12.908;2023-06-26T04:48:11;21.00;99.90
33093;DHT22;19456;46.104;12.908;2023-06-26T04:50:36;21.20;99.90
33093;DHT22;19456;46.104;12.908;2023-06-26T04:53:02;21.40;99.90
33093;DHT22;19456;46.104;12.908;2023-06-26T04:55:27;21.50;99.90
33093;DHT22;19456;46.104;12.908;2023-06-26T04:57:53;21.60;99.90
33093;DHT22;19456;46.104;12.908;2023-06-26T05:00:19;21.70;99.90
33093;DHT22;19456;46.104;12.908;2023-06-26T05:02:45;21.80;99.90
33093;DHT22;19456;46.104;12.908;2023-06-26T05:05:10;21.90;99.90
33093;DHT22;19456;46.104;12.908;2023-06-26T05:07:37;22.00;99.90
33093;DHT22;19456;46.104;12.908;2023-06-26T05:10:03;22.10;99.90
33093;DHT22;19456;46.104;12.908;2023-06-26T05:12:28;22.10;99.90
33093;DHT22;19456;46.104;12.908;2023-06-26T05:14:54;22.30;99.90
33093;DHT22;19456;46.104;12.908;2023-06-26T05:17:19;22.30;99.90
33093;DHT22;19456;46.104;12.908;2023-06-26T05:19:45;22.30;99.90
33093;DHT22;19456;46.104;12.908;2023-06-26T05:22:12;22.50;99.90
33093;DHT22;19456;46.104;12.908;2023-06-26T05:24:38;22.50;99.90
33093;DHT22;19456;46.104;12.908;2023-06-26T05:27:04;22.60;99.90
33093;DHT22;19456;46.104;12.908;2023-06-26T05:29:30;22.60;99.90
33093;DHT22;19456;46.104;12.908;2023-06-26T05:31:56;22.70;99.90
33093;DHT22;19456;46.104;12.908;2023-06-26T05:40:37;22.80;99.90
33093;DHT22;19456;46.104;12.908;2023-06-26T05:43:07;22.80;99.90
33093;DHT22;19456;46.104;12.908;2023-06-26T05:45:33;22.90;99.90
33093;DHT22;19456;46.104;12.908;2023-06-26T05:48:00;23.00;99.90
33093;DHT22;19456;46.104;12.908;2023-06-26T05:50:25;23.00;99.90
33093;DHT22;19456;46.104;12.908;2023-06-26T05:52:51;23.00;99.90
33093;DHT22;19456;46.104;12.908;2023-06-26T05:55:17;23.20;99.90
33093;DHT22;19456;46.104;12.908;2023-06-26T05:57:43;23.30;99.90
33093;DHT22;19456;46.104;12.908;2023-06-26T06:00:13;23.50;99.90
33093;DHT22;19456;46.104;12.908;2023-06-26T06:02:40;23.80;99.90
33093;DHT22;19456;46.104;12.908;2023-06-26T06:05:06;24.00;99.90
33093;DHT22;19456;46.104;12.908;2023-06-26T06:07:33;24.10;99.90
33093;DHT22;19456;46.104;12.908;2023-06-26T06:09:59;24.30;99.90
33093;DHT22;19456;46.104;12.908;2023-06-26T06:12:27;24.20;99.90
33093;DHT22;19456;46.104;12.908;2023-06-26T06:14:53;24.40;99.90
33093;DHT22;19456;46.104;12.908;2023-06-26T06:17:20;24.30;99.90
33093;DHT22;19456;46.104;12.908;2023-06-26T06:19:46;24.40;99.90
33093;DHT22;19456;46.104;12.908;2023-06-26T06:22:11;24.60;99.90
33093;DHT22;19456;46.104;12.908;2023-06-26T06:24:37;24.80;99.90
33093;DHT22;19456;46.104;12.908;2023-06-26T06:27:03;24.80;99.90
33093;DHT22;19456;46.104;12.908;2023-06-26T06:29:29;24.80;99.90
33093;DHT22;19456;46.104;12.908;2023-06-26T06:31:54;24.80;99.90
33093;DHT22;19456;46.104;12.908;2023-06-26T06:34:20;24.60;99.90
33093;DHT22;19456;46.104;12.908;2023-06-26T06:36:47;24.60;99.90
33093;DHT22;19456;46.104;12.908;2023-06-26T06:39:12;24.80;99.90
33093;DHT22;19456;46.104;12.908;2023-06-26T06:41:38;24.90;99.90
33093;DHT22;19456;46.104;12.908;2023-06-26T06:44:05;25.00;99.90
33093;DHT22;19456;46.104;12.908;2023-06-26T06:46:31;25.30;99.90
33093;DHT22;19456;46.104;12.908;2023-06-26T06:48:57;25.40;99.90
33093;DHT22;19456;46.104;12.908;2023-06-26T06:51:25;25.40;99.90
33093;DHT22;19456;46.104;12.908;2023-06-26T06:53:51;25.10;99.90
33093;DHT22;19456;46.104;12.908;2023-06-26T06:56:16;25.20;99.90
33093;DHT22;19456;46.104;12.908;2023-06-26T06:58:42;25.50;99.90
33093;DHT22;19456;46.104;12.908;2023-06-26T07:01:09;25.60;99.90
33093;DHT22;19456;46.104;12.908;2023-06-26T07:03:36;25.70;99.90
33093;DHT22;19456;46.104;12.908;2023-06-26T07:06:02;25.50;99.90
33093;DHT22;19456;46.104;12.908;2023-06-26T07:08:28;25.50;99.90
33093;DHT22;19456;46.104;12.908;2023-06-26T07:10:54;25.70;99.90
33093;DHT22;19456;46.104;12.908;2023-06-26T07:13:22;25.80;99.90
33093;DHT22;19456;46.104;12.908;2023-06-26T07:15:47;26.00;99.90
33093;DHT22;19456;46.104;12.908;2023-06-26T07:18:13;26.10;99.90
33093;DHT22;19456;46.104;12.908;2023-06-26T07:20:39;26.20;99.90
33093;DHT22;19456;46.104;12.908;2023-06-26T07:23:04;26.30;99.90
33093;DHT22;19456;46.104;12.908;2023-06-26T07:25:30;26.50;99.90
33093;DHT22;19456;46.104;12.908;2023-06-26T07:27:55;26.20;99.90
33093;DHT22;19456;46.104;12.908;2023-06-26T07:30:21;26.10;99.90
33093;DHT22;19456;46.104;12.908;2023-06-26T07:32:48;26.20;99.90
33093;DHT22;19456;46.104;12.908;2023-06-26T07:35:13;26.40;99.90
33093;DHT22;19456;46.104;12.908;2023-06-26T07:37:39;26.40;99.90
33093;DHT22;19456;46.104;12.908;2023-06-26T07:40:06;26.40;99.90
33093;DHT22;19456;46.104;12.908;2023-06-26T07:42:32;26.40;99.90
33093;DHT22;19456;46.104;12.908;2023-06-26T07:44:57;26.30;99.90
33093;DHT22;19456;46.104;12.908;2023-06-26T07:47:23;26.40;99.90
33093;DHT22;19456;46.104;12.908;2023-06-26T07:49:48;26.50;99.90
33093;DHT22;19456;46.104;12.908;2023-06-26T07:52:17;26.60;99.90
33093;DHT22;19456;46.104;12.908;2023-06-26T07:54:43;26.50;99.90
33093;DHT22;19456;46.104;12.908;2023-06-26T07:57:09;26.60;99.90
33093;DHT22;19456;46.104;12.908;2023-06-26T07:59:36;26.60;99.90
33093;DHT22;19456;46.104;12.908;2023-06-26T08:02:02;26.60;99.90
33093;DHT22;19456;46.104;12.908;2023-06-26T08:04:28;26.60;99.90
33093;DHT22;19456;46.104;12.908;2023-06-26T08:06:57;26.80;99.90
33093;DHT22;19456;46.104;12.908;2023-06-26T08:09:27;26.70;99.90
33093;DHT22;19456;46.104;12.908;2023-06-26T08:11:53;26.70;99.90
33093;DHT22;19456;46.104;12.908;2023-06-26T08:14:18;26.80;99.90
33093;DHT22;19456;46.104;12.908;2023-06-26T08:16:44;26.80;99.90
33093;DHT22;19456;46.104;12.908;2023-06-26T08:19:13;26.90;99.90
33093;DHT22;19456;46.104;12.908;2023-06-26T08:21:43;26.90;99.90
33093;DHT22;19456;46.104;12.908;2023-06-26T08:24:08;26.80;99.90
33093;DHT22;19456;46.104;12.908;2023-06-26T08:26:35;26.90;99.90
33093;DHT22;19456;46.104;12.908;2023-06-26T08:29:02;27.00;99.90
33093;DHT22;19456;46.104;12.908;2023-06-26T08:31:33;27.00;99.90
33093;DHT22;19456;46.104;12.908;2023-06-26T08:34:01;27.10;99.90
33093;DHT22;19456;46.104;12.908;2023-06-26T08:36:26;27.20;99.90
33093;DHT22;19456;46.104;12.908;2023-06-26T08:38:52;27.20;99.90
33093;DHT22;19456;46.104;12.908;2023-06-26T08:41:17;27.20;99.90
33093;DHT22;19456;46.104;12.908;2023-06-26T08:43:43;27.30;99.90
33093;DHT22;19456;46.104;12.908;2023-06-26T09:04:40;27.60;99.90
33093;DHT22;19456;46.104;12.908;2023-06-26T09:07:06;27.80;99.90
33093;DHT22;19456;46.104;12.908;2023-06-26T09:09:32;28.00;99.90
33093;DHT22;19456;46.104;12.908;2023-06-26T09:11:58;28.10;99.90
33093;DHT22;19456;46.104;12.908;2023-06-26T09:14:23;27.90;99.90
33093;DHT22;19456;46.104;12.908;2023-06-26T09:16:49;27.70;99.90
33093;DHT22;19456;46.104;12.908;2023-06-26T09:19:15;27.70;99.90
33093;DHT22;19456;46.104;12.908;2023-06-26T09:21:44;27.60;99.90
33093;DHT22;19456;46.104;12.908;2023-06-26T09:24:10;27.70;99.90
33093;DHT22;19456;46.104;12.908;2023-06-26T09:26:37;27.90;99.90
33093;DHT22;19456;46.104;12.908;2023-06-26T09:29:03;28.00;99.90
33093;DHT22;19456;46.104;12.908;2023-06-26T09:31:28;27.90;99.90
33093;DHT22;19456;46.104;12.908;2023-06-26T09:33:55;28.20;99.90
33093;DHT22;19456;46.104;12.908;2023-06-26T09:36:23;28.20;99.90
33093;DHT22;19456;46.104;12.908;2023-06-26T09:38:50;28.10;99.90
33093;DHT22;19456;46.104;12.908;2023-06-26T09:41:16;28.20;99.90
33093;DHT22;19456;46.104;12.908;2023-06-26T09:43:46;28.20;99.90
33093;DHT22;19456;46.104;12.908;2023-06-26T09:46:16;28.20;99.90
33093;DHT22;19456;46.104;12.908;2023-06-26T09:48:42;28.40;99.90
33093;DHT22;19456;46.104;12.908;2023-06-26T09:51:08;28.40;99.90
33093;DHT22;19456;46.104;12.908;2023-06-26T09:53:36;28.40;99.90
33093;DHT22;19456;46.104;12.908;2023-06-26T09:56:05;28.30;99.90
33093;DHT22;19456;46.104;12.908;2023-06-26T09:58:35;28.40;99.90
33093;DHT22;19456;46.104;12.908;2023-06-26T10:01:02;28.40;99.90
33093;DHT22;19456;46.104;12.908;2023-06-26T10:03:31;28.70;99.90
33093;DHT22;19456;46.104;12.908;2023-06-26T10:05:57;28.60;99.90
33093;DHT22;19456;46.104;12.908;2023-06-26T10:08:34;28.70;99.90
33093;DHT22;19456;46.104;12.908;2023-06-26T10:11:02;28.60;99.90
33093;DHT22;19456;46.104;12.908;2023-06-26T10:13:30;28.40;99.90
33093;DHT22;19456;46.104;12.908;2023-06-26T10:15:59;28.50;99.90
33093;DHT22;19456;46.104;12.908;2023-06-26T10:18:27;28.40;99.90
33093;DHT22;19456;46.104;12.908;2023-06-26T10:23:47;28.70;99.90
33093;DHT22;19456;46.104;12.908;2023-06-26T10:26:17;28.60;99.90
33093;DHT22;19456;46.104;12.908;2023-06-26T10:28:43;28.60;99.90
33093;DHT22;19456;46.104;12.908;2023-06-26T10:34:01;28.60;99.90
33093;DHT22;19456;46.104;12.908;2023-06-26T10:36:31;29.00;99.90
33093;DHT22;19456;46.104;12.908;2023-06-26T10:39:02;29.10;99.90
33093;DHT22;19456;46.104;12.908;2023-06-26T10:41:47;29.00;99.90
33093;DHT22;19456;46.104;12.908;2023-06-26T10:44:16;29.10;99.90
33093;DHT22;19456;46.104;12.908;2023-06-26T10:46:55;29.20;99.90
33093;DHT22;19456;46.104;12.908;2023-06-26T10:49:26;29.20;99.90
33093;DHT22;19456;46.104;12.908;2023-06-26T10:51:53;29.20;99.90
33093;DHT22;19456;46.104;12.908;2023-06-26T10:54:27;29.30;99.90
33093;DHT22;19456;46.104;12.908;2023-06-26T10:57:01;29.30;99.90
33093;DHT22;19456;46.104;12.908;2023-06-26T10:59:27;29.40;99.90
33093;DHT22;19456;46.104;12.908;2023-06-26T11:02:19;29.40;99.90
33093;DHT22;19456;46.104;12.908;2023-06-26T11:04:49;29.50;99.90
33093;DHT22;19456;46.104;12.908;2023-06-26T11:13:21;29.70;99.90
33093;DHT22;19456;46.104;12.908;2023-06-26T11:15:47;29.60;99.90
33093;DHT22;19456;46.104;12.908;2023-06-26T11:18:19;30.10;99.90
33093;DHT22;19456;46.104;12.908;2023-06-26T11:20:48;30.40;99.90
33093;DHT22;19456;46.104;12.908;2023-06-26T11:23:31;30.60;99.90
33093;DHT22;19456;46.104;12.908;2023-06-26T11:29:05;31.00;99.90
33093;DHT22;19456;46.104;12.908;2023-06-26T11:31:37;30.70;99.90
33093;DHT22;19456;46.104;12.908;2023-06-26T11:34:12;30.30;99.90
33093;DHT22;19456;46.104;12.908;2023-06-26T11:46:20;31.30;99.90
33093;DHT22;19456;46.104;12.908;2023-06-26T11:48:49;31.20;99.90
33093;DHT22;19456;46.104;12.908;2023-06-26T11:51:22;31.40;99.90
33093;DHT22;19456;46.104;12.908;2023-06-26T11:53:48;31.50;99.90
33093;DHT22;19456;46.104;12.908;2023-06-26T11:56:22;31.60;99.90
33093;DHT22;19456;46.104;12.908;2023-06-26T11:59:06;31.80;99.90
33093;DHT22;19456;46.104;12.908;2023-06-26T12:01:34;32.00;99.90
33093;DHT22;19456;46.104;12.908;2023-06-26T12:04:12;32.20;99.90
33093;DHT22;19456;46.104;12.908;2023-06-26T12:06:40;32.40;99.90
33093;DHT22;19456;46.104;12.908;2023-06-26T12:09:08;32.30;99.90
33093;DHT22;19456;46.104;12.908;2023-06-26T12:11:55;32.30;99.90
33093;DHT22;19456;46.104;12.908;2023-06-26T12:40:26;35.50;99.90
33093;DHT22;19456;46.104;12.908;2023-06-26T12:46:01;34.60;99.50
33093;DHT22;19456;46.104;12.908;2023-06-26T12:48:39;34.30;99.70
33093;DHT22;19456;46.104;12.908;2023-06-26T12:51:27;34.50;99.30
33093;DHT22;19456;46.104;12.908;2023-06-26T12:53:59;34.70;99.10
33093;DHT22;19456;46.104;12.908;2023-06-26T12:59:31;35.30;97.60
33093;DHT22;19456;46.104;12.908;2023-06-26T13:01:57;35.60;97.20
33093;DHT22;19456;46.104;12.908;2023-06-26T13:04:26;36.30;96.80
33093;DHT22;19456;46.104;12.908;2023-06-26T13:06:52;35.80;95.90
33093;DHT22;19456;46.104;12.908;2023-06-26T13:09:20;36.40;95.90
33093;DHT22;19456;46.104;12.908;2023-06-26T13:11:46;36.80;95.10
33093;DHT22;19456;46.104;12.908;2023-06-26T13:14:12;37.30;94.40
33093;DHT22;19456;46.104;12.908;2023-06-26T13:16:38;37.50;93.30
33093;DHT22;19456;46.104;12.908;2023-06-26T13:19:03;37.40;93.30
33093;DHT22;19456;46.104;12.908;2023-06-26T13:21:32;36.90;93.10
33093;DHT22;19456;46.104;12.908;2023-06-26T13:23:58;36.00;94.20
33093;DHT22;19456;46.104;12.908;2023-06-26T13:26:24;35.90;93.60
33093;DHT22;19456;46.104;12.908;2023-06-26T13:28:52;36.10;93.70
33093;DHT22;19456;46.104;12.908;2023-06-26T13:31:18;36.20;92.70
33093;DHT22;19456;46.104;12.908;2023-06-26T13:33:43;36.50;93.00
33093;DHT22;19456;46.104;12.908;2023-06-26T13:36:12;36.80;92.10
33093;DHT22;19456;46.104;12.908;2023-06-26T13:38:38;37.00;91.10
33093;DHT22;19456;46.104;12.908;2023-06-26T13:41:04;37.50;91.50
33093;DHT22;19456;46.104;12.908;2023-06-26T13:43:29;37.60;91.10
33093;DHT22;19456;46.104;12.908;2023-06-26T13:45:55;37.90;90.60
33093;DHT22;19456;46.104;12.908;2023-06-26T13:48:21;37.60;90.30
33093;DHT22;19456;46.104;12.908;2023-06-26T13:50:50;36.90;90.70
33093;DHT22;19456;46.104;12.908;2023-06-26T13:53:16;36.90;90.70
33093;DHT22;19456;46.104;12.908;2023-06-26T13:55:42;36.90;89.70
33093;DHT22;19456;46.104;12.908;2023-06-26T13:58:07;36.90;90.20
33093;DHT22;19456;46.104;12.908;2023-06-26T14:00:33;37.20;90.00
33093;DHT22;19456;46.104;12.908;2023-06-26T14:03:03;37.70;89.10
33093;DHT22;19456;46.104;12.908;2023-06-26T14:05:32;37.20;89.80
33093;DHT22;19456;46.104;12.908;2023-06-26T14:07:58;36.80;90.40
33093;DHT22;19456;46.104;12.908;2023-06-26T14:10:23;36.60;90.60
33093;DHT22;19456;46.104;12.908;2023-06-26T14:12:49;36.80;90.60
33093;DHT22;19456;46.104;12.908;2023-06-26T14:15:15;36.90;90.30
33093;DHT22;19456;46.104;12.908;2023-06-26T14:17:43;37.30;89.80
33093;DHT22;19456;46.104;12.908;2023-06-26T14:20:11;37.60;88.50
33093;DHT22;19456;46.104;12.908;2023-06-26T14:22:40;38.50;88.60
33093;DHT22;19456;46.104;12.908;2023-06-26T14:25:06;38.50;86.50
33093;DHT22;19456;46.104;12.908;2023-06-26T14:27:32;38.20;86.10
33093;DHT22;19456;46.104;12.908;2023-06-26T14:29:58;37.80;87.60
33093;DHT22;19456;46.104;12.908;2023-06-26T14:32:26;37.90;87.70
33093;DHT22;19456;46.104;12.908;2023-06-26T14:34:52;37.00;89.00
33093;DHT22;19456;46.104;12.908;2023-06-26T14:37:20;36.90;88.80
33093;DHT22;19456;46.104;12.908;2023-06-26T14:39:45;37.30;88.20
33093;DHT22;19456;46.104;12.908;2023-06-26T14:42:11;37.70;87.10
33093;DHT22;19456;46.104;12.908;2023-06-26T14:44:36;37.90;86.40
33093;DHT22;19456;46.104;12.908;2023-06-26T14:47:02;38.10;85.30
33093;DHT22;19456;46.104;12.908;2023-06-26T14:49:28;37.90;85.30
33093;DHT22;19456;46.104;12.908;2023-06-26T14:51:53;37.50;85.70
33093;DHT22;19456;46.104;12.908;2023-06-26T14:54:19;37.80;86.50
33093;DHT22;19456;46.104;12.908;2023-06-26T14:56:44;38.50;84.80
33093;DHT22;19456;46.104;12.908;2023-06-26T14:59:11;38.50;84.00
33093;DHT22;19456;46.104;12.908;2023-06-26T15:01:36;37.90;84.50
33093;DHT22;19456;46.104;12.908;2023-06-26T15:04:02;38.10;85.80
33093;DHT22;19456;46.104;12.908;2023-06-26T15:06:28;38.10;85.50
33093;DHT22;19456;46.104;12.908;2023-06-26T15:08:53;37.70;85.20
33093;DHT22;19456;46.104;12.908;2023-06-26T15:11:19;38.30;84.80
33093;DHT22;19456;46.104;12.908;2023-06-26T15:13:44;38.20;84.30
33093;DHT22;19456;46.104;12.908;2023-06-26T15:16:10;37.70;84.90
33093;DHT22;19456;46.104;12.908;2023-06-26T15:18:36;38.00;84.80
33093;DHT22;19456;46.104;12.908;2023-06-26T15:21:01;38.00;83.60
33093;DHT22;19456;46.104;12.908;2023-06-26T15:23:29;37.80;83.50
33093;DHT22;19456;46.104;12.908;2023-06-26T15:25:55;37.80;82.90
33093;DHT22;19456;46.104;12.908;2023-06-26T15:28:21;37.60;82.70
33093;DHT22;19456;46.104;12.908;2023-06-26T15:30:46;38.00;82.80
33093;DHT22;19456;46.104;12.908;2023-06-26T15:33:15;37.90;82.10
33093;DHT22;19456;46.104;12.908;2023-06-26T15:35:40;38.20;83.40
33093;DHT22;19456;46.104;12.908;2023-06-26T15:38:10;37.40;83.50
33093;DHT22;19456;46.104;12.908;2023-06-26T15:40:35;36.90;84.70
33093;DHT22;19456;46.104;12.908;2023-06-26T15:43:01;37.10;83.60
33093;DHT22;19456;46.104;12.908;2023-06-26T15:45:27;37.30;84.00
33093;DHT22;19456;46.104;12.908;2023-06-26T15:47:52;37.20;83.70
33093;DHT22;19456;46.104;12.908;2023-06-26T15:50:18;37.40;84.20
33093;DHT22;19456;46.104;12.908;2023-06-26T15:52:44;36.80;85.50
33093;DHT22;19456;46.104;12.908;2023-06-26T15:55:10;36.10;87.50
33093;DHT22;19456;46.104;12.908;2023-06-26T15:57:36;36.00;88.60
33093;DHT22;19456;46.104;12.908;2023-06-26T16:00:02;35.80;88.70
33093;DHT22;19456;46.104;12.908;2023-06-26T16:02:28;35.70;88.50
33093;DHT22;19456;46.104;12.908;2023-06-26T16:04:54;35.50;88.90
33093;DHT22;19456;46.104;12.908;2023-06-26T16:07:20;35.70;89.30
33093;DHT22;19456;46.104;12.908;2023-06-26T16:09:45;35.80;88.60
33093;DHT22;19456;46.104;12.908;2023-06-26T16:12:11;35.90;89.20
33093;DHT22;19456;46.104;12.908;2023-06-26T16:14:36;36.30;88.40
33093;DHT22;19456;46.104;12.908;2023-06-26T16:17:02;36.70;88.20
33093;DHT22;19456;46.104;12.908;2023-06-26T16:19:28;36.60;88.30
33093;DHT22;19456;46.104;12.908;2023-06-26T16:21:54;36.40;88.30
33093;DHT22;19456;46.104;12.908;2023-06-26T16:24:19;36.10;88.30
33093;DHT22;19456;46.104;12.908;2023-06-26T16:26:45;36.00;88.60
33093;DHT22;19456;46.104;12.908;2023-06-26T16:29:10;35.80;89.60
33093;DHT22;19456;46.104;12.908;2023-06-26T16:31:36;35.70;89.50
33093;DHT22;19456;46.104;12.908;2023-06-26T16:34:02;35.40;89.90
33093;DHT22;19456;46.104;12.908;2023-06-26T16:36:27;35.40;90.00
33093;DHT22;19456;46.104;12.908;2023-06-26T16:38:53;35.40;89.10